createdAt,value
2023-03-23T15:58:28.336Z,2.67
2023-03-23T16:00:55.650Z,2.90
2023-03-23T16:03:35.985Z,3.22
2023-03-23T16:06:03.541Z,3.25
2023-03-23T16:08:30.659Z,2.60
2023-03-23T16:10:57.700Z,2.78
2023-03-23T16:13:24.850Z,3.20
2023-03-23T16:15:51.862Z,2.70
2023-03-23T16:18:21.715Z,2.95
2023-03-23T16:20:49.927Z,3.30
2023-03-23T16:23:17.751Z,2.97
2023-03-23T16:25:45.012Z,2.88
2023-03-23T16:28:13.707Z,2.80
2023-03-23T16:30:41.716Z,3.85
2023-03-23T16:33:08.864Z,3.50
2023-03-23T16:35:36.586Z,3.22
2023-03-23T16:38:07.480Z,2.85
2023-03-23T16:40:37.570Z,5.82
2023-03-23T16:43:08.982Z,3.80
2023-03-23T16:45:42.411Z,8.15
2023-03-23T16:48:13.269Z,3.42
2023-03-23T16:50:41.290Z,2.83
2023-03-23T16:53:09.952Z,3.00
2023-03-23T16:55:38.551Z,2.47
2023-03-23T16:58:16.343Z,2.75
2023-03-23T17:00:50.338Z,3.42
2023-03-23T17:03:19.616Z,2.85
2023-03-23T17:05:49.082Z,3.25
2023-03-23T17:08:17.197Z,2.88
2023-03-23T17:10:45.386Z,3.83
2023-03-23T17:13:24.583Z,2.92
2023-03-23T17:15:57.389Z,3.45
2023-03-23T17:18:25.504Z,3.65
2023-03-23T17:20:54.126Z,4.60
2023-03-23T17:23:21.522Z,3.45
2023-03-23T17:25:49.274Z,2.53
2023-03-23T17:28:18.092Z,3.63
2023-03-23T17:33:13.946Z,2.75
2023-03-23T17:35:42.546Z,3.20
2023-03-23T17:38:10.024Z,3.20
2023-03-23T17:40:46.806Z,4.15
2023-03-23T17:43:21.556Z,3.53
2023-03-23T17:46:21.921Z,3.88
2023-03-23T17:51:19.319Z,3.45
2023-03-23T17:53:46.721Z,3.60
2023-03-23T17:56:13.799Z,3.28
2023-03-23T17:58:41.276Z,4.15
2023-03-23T18:01:15.712Z,3.38
2023-03-23T18:03:47.555Z,2.90
2023-03-23T18:06:14.613Z,4.63
2023-03-23T18:08:50.798Z,4.20
2023-03-23T18:11:23.958Z,3.45
2023-03-23T18:13:56.930Z,3.80
2023-03-23T18:16:31.562Z,3.00
2023-03-23T18:18:58.731Z,4.03
2023-03-23T18:21:27.164Z,3.60
2023-03-23T18:24:00.070Z,3.53
2023-03-23T18:26:28.376Z,3.17
2023-03-23T18:28:56.741Z,3.60
2023-03-23T18:31:24.211Z,3.83
2023-03-23T18:33:54.476Z,3.55
2023-03-23T18:36:26.446Z,2.90
2023-03-23T18:39:18.585Z,3.15
2023-03-23T18:41:45.773Z,2.65
2023-03-23T18:44:15.658Z,3.72
2023-03-23T18:46:42.841Z,3.00
2023-03-23T18:49:09.812Z,2.63
2023-03-23T18:51:37.823Z,3.13
2023-03-23T18:54:04.860Z,3.08
2023-03-23T18:56:31.794Z,2.92
2023-03-23T18:58:58.908Z,3.58
2023-03-23T19:01:26.629Z,3.42
2023-03-23T19:03:53.734Z,3.10
2023-03-23T19:06:27.135Z,3.35
2023-03-23T19:08:54.948Z,3.15
2023-03-23T19:11:27.426Z,3.55
2023-03-23T19:14:02.134Z,2.67
2023-03-23T19:16:36.074Z,3.47
2023-03-23T19:19:04.504Z,3.70
2023-03-23T19:21:32.524Z,3.53
2023-03-23T19:24:00.741Z,2.95
2023-03-23T19:26:36.657Z,3.47
2023-03-23T19:29:26.180Z,2.42
2023-03-23T19:31:57.808Z,3.10
2023-03-23T19:34:26.923Z,3.55
2023-03-23T19:36:59.552Z,3.83
2023-03-23T19:39:31.570Z,3.15
2023-03-23T19:41:59.064Z,4.20
2023-03-23T19:44:26.460Z,3.13
2023-03-23T19:46:54.374Z,4.18
2023-03-23T19:49:21.559Z,3.85
2023-03-23T19:51:49.041Z,3.63
2023-03-23T19:54:16.036Z,3.25
2023-03-23T19:56:43.507Z,3.22
2023-03-23T19:59:16.306Z,3.60
2023-03-23T20:01:44.377Z,4.25
2023-03-23T20:04:15.289Z,3.47
2023-03-23T20:06:43.554Z,3.75
2023-03-23T20:09:10.673Z,4.13
2023-03-23T20:11:37.603Z,3.78
2023-03-23T20:14:04.585Z,4.40
2023-03-23T20:16:31.608Z,4.57
2023-03-23T20:19:00.387Z,3.90
2023-03-23T20:21:28.271Z,3.75
2023-03-23T20:24:14.203Z,3.78
2023-03-23T20:26:43.781Z,3.58
2023-03-23T20:29:11.058Z,5.13
2023-03-23T20:31:40.924Z,3.85
2023-03-23T20:34:11.602Z,3.95
2023-03-23T20:36:45.514Z,3.10
2023-03-23T20:39:21.487Z,3.88
2023-03-23T20:41:50.922Z,4.90
2023-03-23T20:44:20.116Z,4.47
2023-03-23T20:46:48.639Z,6.60
2023-03-23T20:49:17.525Z,5.15
2023-03-23T20:51:46.639Z,5.45
2023-03-23T20:54:15.881Z,4.45
2023-03-23T20:56:43.734Z,4.20
2023-03-23T20:59:11.170Z,4.00
2023-03-23T21:01:40.077Z,4.13
2023-03-23T21:04:15.124Z,3.70
2023-03-23T21:06:43.495Z,4.55
2023-03-23T21:09:10.527Z,5.00
2023-03-23T21:11:37.537Z,4.43
2023-03-23T21:14:05.379Z,4.15
2023-03-23T21:16:32.559Z,5.70
2023-03-23T21:18:59.895Z,4.53
2023-03-23T21:21:27.420Z,6.20
2023-03-23T21:23:57.606Z,5.50
2023-03-23T21:26:27.941Z,4.40
2023-03-23T21:29:00.192Z,6.03
2023-03-23T21:31:33.307Z,5.03
2023-03-23T21:34:01.090Z,5.13
2023-03-23T21:36:29.001Z,5.75
2023-03-23T21:38:56.859Z,6.28
2023-03-23T21:41:24.266Z,4.28
2023-03-23T21:43:51.671Z,4.90
2023-03-23T21:46:19.041Z,4.93
2023-03-23T21:48:51.282Z,6.50
2023-03-23T21:51:26.516Z,5.05
2023-03-23T21:53:57.631Z,6.30
2023-03-23T21:56:27.284Z,5.43
2023-03-23T21:58:56.223Z,4.00
2023-03-23T22:01:24.285Z,7.10
2023-03-23T22:03:51.493Z,6.10
2023-03-23T22:06:23.547Z,6.13
2023-03-23T22:08:51.102Z,4.53
2023-03-23T22:11:21.261Z,5.85
2023-03-23T22:13:51.739Z,7.25
2023-03-23T22:16:20.085Z,5.13
2023-03-23T22:18:48.347Z,5.45
2023-03-23T22:21:16.938Z,6.05
2023-03-23T22:23:45.526Z,4.85
2023-03-23T22:26:12.998Z,7.00
2023-03-23T22:28:41.282Z,6.57
2023-03-23T22:31:13.607Z,5.57
2023-03-23T22:33:40.947Z,6.35
2023-03-23T22:36:08.709Z,7.00
2023-03-23T22:38:37.602Z,4.57
2023-03-23T22:41:07.219Z,4.68
2023-03-23T22:43:36.039Z,4.43
2023-03-23T22:46:04.513Z,3.88
2023-03-23T22:48:31.765Z,3.95
2023-03-23T22:50:59.099Z,7.07
2023-03-23T22:53:26.732Z,5.88
2023-03-23T22:55:56.086Z,5.25
2023-03-23T22:58:24.608Z,5.18
2023-03-23T23:00:59.498Z,5.40
2023-03-23T23:03:27.386Z,4.97
2023-03-23T23:05:56.036Z,6.43
2023-03-23T23:08:23.663Z,4.47
2023-03-23T23:10:52.800Z,7.10
2023-03-23T23:13:20.028Z,6.25
2023-03-23T23:15:51.380Z,6.30
2023-03-23T23:18:19.358Z,6.70
2023-03-23T23:20:55.553Z,6.13
2023-03-23T23:23:24.044Z,5.07
2023-03-23T23:25:51.601Z,7.10
2023-03-23T23:28:19.637Z,6.72
2023-03-23T23:30:47.575Z,6.03
2023-03-23T23:33:14.764Z,6.00
2023-03-23T23:35:42.655Z,4.45
2023-03-23T23:38:12.574Z,5.47
2023-03-23T23:40:41.393Z,4.95
2023-03-23T23:43:10.937Z,6.93
2023-03-23T23:45:38.295Z,7.68
2023-03-23T23:48:06.257Z,5.78
2023-03-23T23:50:33.614Z,6.72
2023-03-23T23:53:00.950Z,8.02
2023-03-23T23:55:28.123Z,6.97
2023-03-23T23:57:55.204Z,7.78
